Time;durP1;ratioP1;P1;durP2;ratioP2;P2;SDS_P1;SDS_P2;PMS_P1;PMS_P2;Temp;Humidity;BMP_temperature;BMP_pressure;BME280_temperature;BME280_humidity;BME280_pressure;Samples;Min_cycle;Max_cycle;Signal;HPM_P1;HPM_P2
2021/01/20 00:02:10;;;;;;;84.50;46.33;;;1.60;91.30;;;;;;4936584;29;20036;-70
2021/01/20 00:04:35;;;;;;;92.93;49.78;;;1.70;90.20;;;;;;4919434;29;20027;-69
2021/01/20 00:07:01;;;;;;;104.97;55.45;;;1.70;90.10;;;;;;4936514;29;20034;-71
2021/01/20 00:09:27;;;;;;;94.90;50.92;;;1.70;90.00;;;;;;4936388;29;20036;-69
2021/01/20 00:11:52;;;;;;;93.95;49.70;;;1.80;90.60;;;;;;4935448;29;20031;-72
2021/01/20 00:14:18;;;;;;;130.13;69.07;;;1.80;90.90;;;;;;4919685;29;20082;-69
2021/01/20 00:16:45;;;;;;;131.07;66.70;;;1.80;90.30;;;;;;4919254;29;20035;-69
2021/01/20 00:19:11;;;;;;;137.45;73.03;;;1.90;90.90;;;;;;4935432;29;20039;-69
2021/01/20 00:21:38;;;;;;;133.38;70.38;;;1.90;90.60;;;;;;4919687;29;20056;-72
2021/01/20 00:24:04;;;;;;;122.65;67.40;;;1.80;91.50;;;;;;4936323;29;20023;-72
2021/01/20 00:26:30;;;;;;;118.43;61.95;;;1.80;92.00;;;;;;4936615;29;20106;-68
2021/01/20 00:28:56;;;;;;;122.78;64.95;;;1.80;91.60;;;;;;4936031;29;20163;-71
2021/01/20 00:31:21;;;;;;;106.80;60.10;;;1.90;91.00;;;;;;4935313;29;20035;-71
2021/01/20 00:33:47;;;;;;;113.22;63.17;;;1.90;91.90;;;;;;4936292;29;20038;-71
2021/01/20 00:36:13;;;;;;;100.15;56.20;;;1.90;91.60;;;;;;4936172;29;20035;-68
2021/01/20 00:38:39;;;;;;;104.60;58.63;;;1.90;91.60;;;;;;4936422;29;20063;-69
2021/01/20 00:41:05;;;;;;;100.57;56.78;;;1.80;91.90;;;;;;4936428;29;20056;-69
2021/01/20 00:43:31;;;;;;;106.90;56.45;;;1.90;92.30;;;;;;4936313;29;20104;-69
2021/01/20 00:45:57;;;;;;;114.40;59.25;;;1.90;91.90;;;;;;4935169;29;20028;-71
2021/01/20 00:48:23;;;;;;;192.85;79.43;;;1.80;92.40;;;;;;4919171;29;20087;-70
2021/01/20 00:50:56;;;;;;;129.93;60.30;;;1.90;91.10;;;;;;4934775;29;20039;-70
2021/01/20 00:53:22;;;;;;;134.15;61.50;;;1.90;91.30;;;;;;4919659;29;20055;-70
2021/01/20 00:55:49;;;;;;;125.30;60.83;;;1.90;91.50;;;;;;4936594;29;20539;-71
2021/01/20 00:58:15;;;;;;;97.25;49.22;;;1.90;92.00;;;;;;4918961;29;20035;-70
2021/01/20 01:00:40;;;;;;;69.53;36.97;;;1.90;91.40;;;;;;4936297;29;20031;-70
2021/01/20 01:03:06;;;;;;;69.70;36.50;;;1.90;90.80;;;;;;4936038;29;20141;-71
2021/01/20 01:05:32;;;;;;;83.40;42.97;;;1.90;90.90;;;;;;4918852;29;20094;-70
2021/01/20 01:07:58;;;;;;;67.75;37.55;;;2.00;90.90;;;;;;4936392;29;20028;-73
2021/01/20 01:10:24;;;;;;;68.80;37.00;;;2.00;90.60;;;;;;4935975;29;20039;-70
2021/01/20 01:12:50;;;;;;;71.15;40.33;;;2.00;91.10;;;;;;4935615;29;20365;-71
2021/01/20 01:15:15;;;;;;;54.92;30.70;;;2.00;90.60;;;;;;4936201;29;20072;-71
2021/01/20 01:17:41;;;;;;;58.58;33.10;;;2.00;90.70;;;;;;4937974;29;20124;-71
2021/01/20 01:20:07;;;;;;;50.00;25.02;;;2.00;91.10;;;;;;4938209;29;20027;-70
2021/01/20 01:22:33;;;;;;;43.45;23.90;;;2.10;90.40;;;;;;4922154;29;20043;-71
2021/01/20 01:24:59;;;;;;;43.35;23.52;;;2.20;90.40;;;;;;4939124;29;20399;-70
2021/01/20 01:27:25;;;;;;;40.20;23.35;;;2.20;90.10;;;;;;4939651;29;20372;-71
2021/01/20 01:29:50;;;;;;;43.72;23.48;;;2.30;90.00;;;;;;4939480;29;20048;-69
2021/01/20 01:32:16;;;;;;;48.42;25.80;;;2.30;89.40;;;;;;4939483;29;20038;-69
2021/01/20 01:34:43;;;;;;;47.83;25.33;;;2.40;89.50;;;;;;4938240;29;20058;-69
2021/01/20 01:37:09;;;;;;;44.92;24.50;;;2.50;88.80;;;;;;4939401;29;20091;-70
2021/01/20 01:39:36;;;;;;;40.35;23.33;;;2.50;88.40;;;;;;4922006;29;20035;-69
2021/01/20 01:42:04;;;;;;;42.55;21.65;;;2.60;87.90;;;;;;4939368;29;20032;-71
2021/01/20 01:44:30;;;;;;;35.80;20.27;;;2.60;87.70;;;;;;4939585;29;20028;-70
2021/01/20 01:46:56;;;;;;;36.53;19.73;;;2.60;87.70;;;;;;4938967;29;20053;-70
2021/01/20 01:49:22;;;;;;;31.48;17.15;;;2.70;87.50;;;;;;4921961;29;20472;-71
2021/01/20 01:51:47;;;;;;;29.55;16.88;;;2.70;87.20;;;;;;4938949;29;20476;-70
2021/01/20 01:54:15;;;;;;;27.65;16.05;;;2.70;87.20;;;;;;4938946;29;20388;-71
2021/01/20 01:56:41;;;;;;;32.85;17.48;;;2.70;86.60;;;;;;4939096;29;20152;-71
2021/01/20 01:59:06;;;;;;;31.77;16.83;;;2.80;86.80;;;;;;4938776;29;20057;-71
2021/01/20 02:01:32;;;;;;;27.92;15.25;;;2.80;86.70;;;;;;4921546;29;20064;-71
2021/01/20 02:03:58;;;;;;;23.75;13.38;;;2.90;86.20;;;;;;4939179;29;20030;-71
2021/01/20 02:06:23;;;;;;;22.63;12.65;;;2.90;86.10;;;;;;4938689;29;20539;-71
2021/01/20 02:08:51;;;;;;;23.15;13.02;;;3.00;85.30;;;;;;4938516;29;20036;-70
2021/01/20 02:11:45;;;;;;;23.10;13.48;;;3.00;85.20;;;;;;4939115;29;20031;-71
2021/01/20 02:14:57;;;;;;;22.77;12.70;;;3.00;85.40;;;;;;4938518;29;20086;-71
2021/01/20 02:17:47;;;;;;;22.85;13.75;;;3.00;85.30;;;;;;4845702;29;20030;-70
2021/01/20 02:20:31;;;;;;;23.33;13.05;;;3.00;85.40;;;;;;4861183;29;20029;-71
2021/01/20 02:22:59;;;;;;;24.00;12.93;;;3.10;85.20;;;;;;4918903;29;20051;-71
2021/01/20 02:26:02;;;;;;;21.00;11.65;;;3.00;85.50;;;;;;4938867;29;20111;-72
2021/01/20 02:28:36;;;;;;;17.92;10.27;;;3.10;85.60;;;;;;4936676;29;20490;-70
2021/01/20 02:31:03;;;;;;;17.92;10.00;;;3.10;85.40;;;;;;4938567;29;20148;-71
2021/01/20 02:33:31;;;;;;;16.88;9.65;;;3.10;85.90;;;;;;4937129;29;20079;-72
2021/01/20 02:36:03;;;;;;;16.02;8.80;;;3.10;85.60;;;;;;4921041;29;20030;-71
2021/01/20 02:38:30;;;;;;;14.98;8.60;;;3.20;85.50;;;;;;4921653;29;20036;-71
2021/01/20 02:40:55;;;;;;;14.40;8.27;;;3.20;85.00;;;;;;4938370;29;20058;-72
2021/01/20 02:43:25;;;;;;;14.07;7.60;;;3.20;85.30;;;;;;4937731;29;20055;-71
2021/01/20 02:45:51;;;;;;;14.65;8.25;;;3.20;85.20;;;;;;4921100;29;20031;-72
2021/01/20 02:48:17;;;;;;;14.57;7.32;;;3.20;85.40;;;;;;4938119;29;20031;-73
2021/01/20 02:50:44;;;;;;;13.07;7.63;;;3.20;85.40;;;;;;4936565;29;20062;-72
2021/01/20 02:53:16;;;;;;;14.63;8.18;;;3.20;85.30;;;;;;4938137;29;20032;-71
2021/01/20 02:55:48;;;;;;;16.08;9.13;;;3.10;86.40;;;;;;4938140;29;20027;-72
2021/01/20 02:58:21;;;;;;;16.17;8.80;;;3.10;86.30;;;;;;4936530;29;20031;-71
2021/01/20 03:00:50;;;;;;;15.02;8.27;;;3.10;86.20;;;;;;4921299;29;20031;-71
2021/01/20 03:03:18;;;;;;;13.82;7.90;;;3.10;86.10;;;;;;4937594;29;20027;-72
2021/01/20 03:05:45;;;;;;;12.48;7.47;;;3.10;86.30;;;;;;4938118;29;20032;-71
2021/01/20 03:08:12;;;;;;;11.57;6.70;;;3.20;86.10;;;;;;4937732;29;20070;-70
2021/01/20 03:10:38;;;;;;;10.88;6.82;;;3.20;86.30;;;;;;4937445;29;20067;-72
2021/01/20 03:13:04;;;;;;;15.40;11.55;;;3.20;86.10;;;;;;4920843;29;20448;-71
2021/01/20 03:15:37;;;;;;;11.88;6.53;;;3.20;86.20;;;;;;4920622;29;20028;-70
2021/01/20 03:18:04;;;;;;;22.00;16.02;;;3.20;86.40;;;;;;4937240;29;20038;-73
2021/01/20 03:20:29;;;;;;;10.05;7.20;;;3.20;87.00;;;;;;4937367;29;20472;-70
2021/01/20 03:22:56;;;;;;;8.38;5.45;;;3.20;87.40;;;;;;4937716;29;20044;-71
2021/01/20 03:25:21;;;;;;;10.13;5.68;;;3.20;87.40;;;;;;4937189;29;20132;-71
2021/01/20 03:27:47;;;;;;;8.98;6.75;;;3.20;87.90;;;;;;4937647;29;20099;-70
2021/01/20 03:30:14;;;;;;;8.77;6.47;;;3.20;88.80;;;;;;4920435;29;20468;-71
2021/01/20 03:32:39;;;;;;;8.60;5.32;;;3.20;88.20;;;;;;4937414;29;20417;-72
2021/01/20 03:35:06;;;;;;;9.70;5.47;;;3.20;88.20;;;;;;4920675;29;20083;-71
2021/01/20 03:37:32;;;;;;;10.93;7.32;;;3.20;88.50;;;;;;4937176;29;20083;-71
2021/01/20 03:39:58;;;;;;;11.60;7.32;;;3.20;88.60;;;;;;4919288;29;20028;-71
2021/01/20 03:42:23;;;;;;;12.15;7.25;;;3.20;88.60;;;;;;4936911;29;20032;-71
2021/01/20 03:44:49;;;;;;;9.50;5.97;;;3.20;88.90;;;;;;4920025;29;20036;-71
2021/01/20 03:47:15;;;;;;;9.45;5.88;;;3.20;89.80;;;;;;4937155;29;20486;-70
2021/01/20 03:49:41;;;;;;;10.52;6.47;;;3.20;89.20;;;;;;4936724;29;20044;-70
2021/01/20 03:52:06;;;;;;;10.48;5.85;;;3.20;89.20;;;;;;4919677;29;20047;-71
2021/01/20 03:54:32;;;;;;;10.27;6.30;;;3.20;89.40;;;;;;4937059;29;20035;-70
2021/01/20 03:56:58;;;;;;;11.15;7.03;;;3.20;89.10;;;;;;4936689;29;20035;-71
2021/01/20 03:59:24;;;;;;;13.95;8.40;;;3.10;89.90;;;;;;4936650;29;20492;-71
2021/01/20 04:01:49;;;;;;;10.20;6.15;;;3.00;90.40;;;;;;4937173;29;20392;-71
2021/01/20 04:04:15;;;;;;;12.00;6.90;;;3.00;90.80;;;;;;4937128;29;20028;-71
2021/01/20 04:06:41;;;;;;;18.85;7.65;;;3.00;90.70;;;;;;4936509;29;20475;-70
2021/01/20 04:09:07;;;;;;;24.50;10.10;;;3.10;90.60;;;;;;4919598;29;20477;-72
2021/01/20 04:11:33;;;;;;;39.92;14.43;;;3.00;90.40;;;;;;4936092;29;20043;-72
2021/01/20 04:13:58;;;;;;;36.30;14.63;;;3.00;90.40;;;;;;4935105;29;20130;-70
2021/01/20 04:16:24;;;;;;;56.92;20.33;;;3.00;90.60;;;;;;4936703;29;20233;-72
2021/01/20 04:18:50;;;;;;;59.30;21.67;;;2.90;90.70;;;;;;4934344;29;20040;-73
2021/01/20 04:21:15;;;;;;;60.50;22.45;;;2.80;91.30;;;;;;4934744;29;20052;-70
2021/01/20 04:23:41;;;;;;;76.55;27.65;;;2.80;91.10;;;;;;4936283;29;20492;-72
2021/01/20 04:26:08;;;;;;;82.63;29.73;;;2.80;91.70;;;;;;4936696;29;20038;-70
2021/01/20 04:28:35;;;;;;;82.03;29.88;;;2.70;91.90;;;;;;4919048;29;20046;-73
2021/01/20 04:31:02;;;;;;;77.40;29.33;;;2.70;91.50;;;;;;4936567;29;20035;-70
2021/01/20 04:33:28;;;;;;;80.80;31.48;;;2.70;91.70;;;;;;4919777;29;20031;-72
2021/01/20 04:35:54;;;;;;;69.28;29.10;;;2.70;91.50;;;;;;4935951;29;20413;-72
2021/01/20 04:38:20;;;;;;;66.90;27.95;;;2.60;92.20;;;;;;4936800;29;20028;-73
2021/01/20 04:40:46;;;;;;;58.58;23.10;;;2.60;92.00;;;;;;4919417;29;20039;-72
2021/01/20 04:43:12;;;;;;;58.53;24.33;;;2.70;91.60;;;;;;4919183;29;20463;-71
2021/01/20 04:45:38;;;;;;;58.53;25.50;;;2.70;91.70;;;;;;4936203;29;20111;-71
2021/01/20 04:48:06;;;;;;;51.67;23.77;;;2.60;91.90;;;;;;4936309;29;20036;-72
2021/01/20 04:50:35;;;;;;;45.95;22.17;;;2.60;92.00;;;;;;4936798;29;20023;-71
2021/01/20 04:53:08;;;;;;;46.35;21.25;;;2.60;91.90;;;;;;4940545;29;20028;-74
2021/01/20 04:55:34;;;;;;;31.98;16.15;;;2.60;92.20;;;;;;4939977;29;20027;-70
2021/01/20 04:58:02;;;;;;;32.38;16.77;;;2.60;91.80;;;;;;4940101;29;20542;-72
2021/01/20 05:00:28;;;;;;;34.85;17.85;;;2.60;92.40;;;;;;4940109;29;20039;-72
2021/01/20 05:02:55;;;;;;;36.13;17.55;;;2.60;91.80;;;;;;4939702;29;20027;-72
2021/01/20 05:05:21;;;;;;;33.65;16.48;;;2.60;91.90;;;;;;4939727;29;20026;-72
2021/01/20 05:07:47;;;;;;;28.38;15.90;;;2.50;91.80;;;;;;4922555;29;20040;-70
2021/01/20 05:10:13;;;;;;;29.80;15.50;;;2.50;92.10;;;;;;4939423;29;20034;-72
2021/01/20 05:12:43;;;;;;;33.17;15.85;;;2.50;92.20;;;;;;4922995;29;20038;-71
2021/01/20 05:15:11;;;;;;;27.75;17.30;;;2.50;92.40;;;;;;4922824;29;20063;-72
2021/01/20 05:17:51;;;;;;;31.25;18.17;;;2.50;92.40;;;;;;4939536;29;20034;-72
2021/01/20 05:20:29;;;;;;;36.10;19.77;;;2.50;92.60;;;;;;4939638;29;20078;-71
2021/01/20 05:22:59;;;;;;;38.50;22.27;;;2.50;92.30;;;;;;4939878;29;20052;-73
2021/01/20 05:25:44;;;;;;;51.83;29.08;;;2.50;92.90;;;;;;4938419;29;20487;-74
2021/01/20 05:28:17;;;;;;;;;;;2.40;92.60;;;;;;4940046;29;20079;-72
2021/01/20 05:30:59;;;;;;;61.47;34.40;;;2.40;92.60;;;;;;4939253;29;20287;-72
2021/01/20 05:33:27;;;;;;;65.70;36.28;;;2.30;92.60;;;;;;4938315;29;20086;-71
2021/01/20 05:36:13;;;;;;;58.75;31.13;;;2.30;92.70;;;;;;4922444;29;20130;-72
2021/01/20 05:38:39;;;;;;;59.13;32.67;;;2.30;93.20;;;;;;4922611;29;20036;-72
2021/01/20 05:41:25;;;;;;;46.20;27.58;;;2.30;93.00;;;;;;4939550;29;20028;-72
2021/01/20 05:44:07;;;;;;;42.75;24.13;;;2.30;93.30;;;;;;4938764;29;20024;-72
2021/01/20 05:46:38;;;;;;;44.50;26.90;;;2.20;93.50;;;;;;4939579;29;20024;-72
2021/01/20 05:49:05;;;;;;;58.65;34.17;;;2.20;93.30;;;;;;4922380;29;20075;-71
2021/01/20 05:51:42;;;;;;;64.95;37.17;;;2.20;93.80;;;;;;4921822;29;20027;-73
2021/01/20 05:54:09;;;;;;;66.80;38.95;;;2.20;93.90;;;;;;4939165;29;20043;-72
2021/01/20 05:56:36;;;;;;;71.68;39.72;;;2.20;93.60;;;;;;4939141;29;20038;-72
2021/01/20 05:59:09;;;;;;;47.25;27.55;;;2.20;93.80;;;;;;4938775;29;20454;-70
2021/01/20 06:01:35;;;;;;;41.72;25.88;;;2.20;94.00;;;;;;4921958;29;20031;-71
2021/01/20 06:04:01;;;;;;;36.33;22.30;;;2.10;94.10;;;;;;4921262;29;20035;-71
2021/01/20 06:06:28;;;;;;;35.08;22.73;;;2.10;94.30;;;;;;4938687;29;20032;-72
2021/01/20 06:08:56;;;;;;;36.80;23.77;;;2.10;94.60;;;;;;4922361;29;20031;-71
2021/01/20 06:11:22;;;;;;;37.97;23.77;;;2.10;94.80;;;;;;4938902;29;20032;-71
2021/01/20 06:13:48;;;;;;;56.17;30.50;;;2.10;94.70;;;;;;4937299;29;20035;-71
2021/01/20 06:16:19;;;;;;;92.97;50.50;;;2.20;94.50;;;;;;4921774;29;20543;-73
2021/01/20 06:19:02;;;;;;;160.73;95.07;;;2.10;94.80;;;;;;4938765;29;20051;-72
2021/01/20 06:21:27;;;;;;;185.32;99.93;;;2.20;94.60;;;;;;4937134;29;20059;-73
2021/01/20 06:24:13;;;;;;;185.55;95.20;;;2.20;94.00;;;;;;4937397;29;20027;-72
2021/01/20 06:26:58;;;;;;;192.10;100.00;;;2.30;94.10;;;;;;4938960;29;20110;-71
2021/01/20 06:29:25;;;;;;;;;;;2.30;94.50;;;;;;4939093;29;20485;-71
2021/01/20 06:31:53;;;;;;;359.10;158.23;;;2.30;94.30;;;;;;4938796;29;19918;-71
2021/01/20 06:34:19;;;;;;;264.65;117.72;;;2.40;94.00;;;;;;4920748;29;20094;-72
2021/01/20 06:36:45;;;;;;;220.82;102.03;;;2.40;93.80;;;;;;4938453;29;20103;-72
2021/01/20 06:39:26;;;;;;;221.63;105.07;;;2.40;93.90;;;;;;4921229;29;20028;-72
2021/01/20 06:41:52;;;;;;;265.98;127.85;;;2.40;93.80;;;;;;4936827;29;20028;-71
2021/01/20 06:44:17;;;;;;;218.50;106.63;;;2.40;93.70;;;;;;4938256;29;20027;-72
2021/01/20 06:46:55;;;;;;;214.20;104.63;;;2.50;94.10;;;;;;4921209;29;20035;-70
2021/01/20 06:49:31;;;;;;;216.98;110.35;;;2.50;93.90;;;;;;4936894;29;20062;-72
2021/01/20 06:52:06;;;;;;;105.55;66.63;;;2.60;94.30;;;;;;4921250;29;20053;-73
2021/01/20 06:54:37;;;;;;;114.07;66.70;;;2.70;93.90;;;;;;4937554;29;20060;-70
2021/01/20 06:57:25;;;;;;;135.57;79.28;;;2.70;93.90;;;;;;4938420;29;20038;-73
2021/01/20 07:00:09;;;;;;;146.32;84.80;;;2.70;94.10;;;;;;4937958;29;20171;-72
2021/01/20 07:02:35;;;;;;;135.88;74.53;;;2.70;93.80;;;;;;4936333;29;20035;-72
2021/01/20 07:05:03;;;;;;;131.48;76.43;;;2.70;93.50;;;;;;4920423;29;20086;-71
2021/01/20 07:07:56;;;;;;;121.47;70.38;;;2.70;94.20;;;;;;4920619;29;20074;-74
2021/01/20 07:10:30;;;;;;;146.50;79.43;;;2.80;94.10;;;;;;4934133;29;20048;-71
2021/01/20 07:13:08;;;;;;;;;;;2.80;93.40;;;;;;4936818;29;20023;-71
2021/01/20 07:15:35;;;;;;;190.35;92.90;;;2.90;93.20;;;;;;4935246;29;19907;-71
2021/01/20 07:18:02;;;;;;;181.38;92.18;;;2.90;93.30;;;;;;4937263;29;20056;-73
2021/01/20 07:20:27;;;;;;;181.05;89.45;;;2.90;93.10;;;;;;4937188;29;20024;-70
2021/01/20 07:22:54;;;;;;;189.15;93.18;;;3.00;93.30;;;;;;4936536;29;20048;-73
2021/01/20 07:25:20;;;;;;;170.18;88.88;;;3.00;93.40;;;;;;4936740;29;20061;-72
2021/01/20 07:27:49;;;;;;;181.75;97.97;;;3.00;93.50;;;;;;4934658;29;20031;-71
2021/01/20 07:30:16;;;;;;;174.85;94.22;;;3.10;93.60;;;;;;4919935;29;20036;-72
2021/01/20 07:32:42;;;;;;;196.77;101.85;;;3.10;93.60;;;;;;4937532;29;20039;-71
2021/01/20 07:35:25;;;;;;;215.98;113.05;;;3.20;93.50;;;;;;4920258;29;20417;-72
2021/01/20 07:38:07;;;;;;;154.73;84.05;;;3.30;93.30;;;;;;4936440;29;20031;-72
2021/01/20 07:40:38;;;;;;;156.25;86.05;;;3.30;92.80;;;;;;4918987;29;20170;-74
2021/01/20 07:43:04;;;;;;;154.70;86.15;;;3.40;92.70;;;;;;4935039;29;20028;-72
2021/01/20 07:45:41;;;;;;;162.00;89.70;;;3.30;92.40;;;;;;4918668;29;20030;-74
2021/01/20 07:48:08;;;;;;;161.65;89.53;;;3.20;92.40;;;;;;4934736;29;20032;-73
2021/01/20 07:50:38;;;;;;;170.35;93.15;;;3.20;92.50;;;;;;4917645;29;20179;-72
2021/01/20 07:53:05;;;;;;;190.82;98.15;;;3.10;92.90;;;;;;4936537;29;20380;-72
2021/01/20 07:55:32;;;;;;;208.90;104.95;;;3.20;93.30;;;;;;4919723;29;20028;-72
2021/01/20 07:57:59;;;;;;;202.13;107.57;;;3.20;93.40;;;;;;4918330;29;20028;-72
2021/01/20 08:00:26;;;;;;;202.85;106.85;;;3.20;92.80;;;;;;4935257;29;20023;-73
2021/01/20 08:02:52;;;;;;;186.85;99.75;;;3.20;93.50;;;;;;4919486;29;20460;-71
2021/01/20 08:05:18;;;;;;;175.88;100.75;;;3.10;93.20;;;;;;4936584;29;20032;-73
2021/01/20 08:07:44;;;;;;;166.95;93.55;;;3.10;93.10;;;;;;4936851;29;20424;-72
2021/01/20 08:10:20;;;;;;;162.32;90.95;;;3.20;93.20;;;;;;4936997;29;20131;-73
2021/01/20 08:12:53;;;;;;;150.68;88.90;;;3.30;93.00;;;;;;4936868;29;20027;-69
2021/01/20 08:15:20;;;;;;;158.50;91.40;;;3.30;93.20;;;;;;4936858;29;20028;-72
2021/01/20 08:17:46;;;;;;;180.48;101.95;;;3.40;93.00;;;;;;4936882;29;20380;-71
2021/01/20 08:20:12;;;;;;;184.55;110.22;;;3.30;93.10;;;;;;4936112;29;20027;-73
2021/01/20 08:22:44;;;;;;;203.50;117.05;;;3.40;93.40;;;;;;4919659;29;20051;-71
2021/01/20 08:25:10;;;;;;;196.82;114.97;;;3.40;93.60;;;;;;4919289;29;20040;-71
2021/01/20 08:27:37;;;;;;;198.93;115.22;;;3.50;93.70;;;;;;4935077;29;20024;-71
2021/01/20 08:30:05;;;;;;;219.55;126.63;;;3.50;93.80;;;;;;4935797;29;20055;-72
2021/01/20 08:32:31;;;;;;;209.13;119.15;;;3.50;94.10;;;;;;4919199;29;20078;-71
2021/01/20 08:34:59;;;;;;;271.88;146.27;;;3.70;94.20;;;;;;4919405;29;20031;-71
2021/01/20 08:37:41;;;;;;;287.67;158.23;;;3.90;93.80;;;;;;4936454;29;20118;-74
2021/01/20 08:40:14;;;;;;;329.02;173.10;;;4.00;93.80;;;;;;4919576;29;20078;-74
2021/01/20 08:42:41;;;;;;;304.02;163.02;;;4.10;93.20;;;;;;4936512;29;20384;-72
2021/01/20 08:45:17;;;;;;;308.60;170.27;;;4.10;93.60;;;;;;4936001;29;20478;-70
2021/01/20 08:48:02;;;;;;;300.50;165.82;;;4.10;92.90;;;;;;4935033;29;20075;-70
2021/01/20 08:50:27;;;;;;;304.10;174.63;;;4.10;93.00;;;;;;4936474;29;20031;-70
2021/01/20 08:52:54;;;;;;;312.08;173.65;;;4.00;93.80;;;;;;4934747;29;20039;-71
2021/01/20 08:55:29;;;;;;;333.35;187.57;;;4.00;93.80;;;;;;4919149;29;20028;-70
2021/01/20 08:58:24;;;;;;;306.88;172.57;;;4.10;94.10;;;;;;4936256;29;20024;-70
2021/01/20 09:01:22;;;;;;;308.63;172.23;;;4.10;93.80;;;;;;4934674;29;20387;-72
2021/01/20 09:03:58;;;;;;;317.13;178.60;;;4.20;93.70;;;;;;4911087;29;20540;-70
2021/01/20 09:06:26;;;;;;;366.48;206.57;;;4.20;93.70;;;;;;4919208;29;20032;-72
2021/01/20 09:08:53;;;;;;;390.17;221.95;;;4.20;94.30;;;;;;4935776;29;20372;-73
2021/01/20 09:11:19;;;;;;;414.27;232.32;;;4.20;94.50;;;;;;4936220;29;20031;-71
2021/01/20 09:13:45;;;;;;;426.27;247.68;;;4.30;94.40;;;;;;4936168;29;20028;-71
2021/01/20 09:16:11;;;;;;;415.95;241.32;;;4.30;94.60;;;;;;4934506;29;20118;-71
2021/01/20 09:18:37;;;;;;;390.73;231.02;;;4.40;93.90;;;;;;4936335;29;20039;-70
2021/01/20 09:21:05;;;;;;;386.08;231.38;;;4.40;94.20;;;;;;4918801;29;20059;-71
2021/01/20 09:23:32;;;;;;;370.10;225.15;;;4.50;93.90;;;;;;4942079;29;20499;-69
2021/01/20 09:25:58;;;;;;;327.85;201.35;;;4.60;94.20;;;;;;4935117;29;20035;-69
2021/01/20 09:28:23;;;;;;;312.77;201.68;;;4.80;93.20;;;;;;4933842;29;20028;-71
2021/01/20 09:30:49;;;;;;;258.02;162.43;;;4.90;93.10;;;;;;4936073;29;20388;-70
2021/01/20 09:33:16;;;;;;;256.38;163.05;;;5.10;92.20;;;;;;4946756;29;20494;-71
2021/01/20 09:35:44;;;;;;;262.63;164.32;;;5.30;91.60;;;;;;4953839;29;20059;-73
2021/01/20 09:38:09;;;;;;;217.68;137.27;;;5.40;91.60;;;;;;4956100;28;20035;-73
2021/01/20 09:40:36;;;;;;;237.10;153.07;;;5.50;91.30;;;;;;4958355;29;20499;-72
2021/01/20 09:43:02;;;;;;;209.52;134.30;;;5.50;91.90;;;;;;4957393;29;20027;-73
2021/01/20 09:45:29;;;;;;;186.48;113.90;;;5.40;91.50;;;;;;4958267;29;20046;-71
2021/01/20 09:48:06;;;;;;;161.20;91.15;;;5.40;91.70;;;;;;4958125;29;20023;-72
2021/01/20 09:50:34;;;;;;;129.00;76.25;;;5.50;90.80;;;;;;4957034;29;20071;-72
2021/01/20 09:53:02;;;;;;;133.00;80.30;;;5.60;90.50;;;;;;4958327;29;20106;-71
2021/01/20 09:55:28;;;;;;;138.77;84.78;;;5.60;91.50;;;;;;4957558;29;20463;-72
2021/01/20 09:57:54;;;;;;;131.18;82.47;;;5.70;91.10;;;;;;4956716;29;20114;-72
2021/01/20 10:00:20;;;;;;;131.35;79.68;;;5.60;91.40;;;;;;4956957;29;20424;-72
2021/01/20 10:02:46;;;;;;;114.55;74.22;;;5.80;90.50;;;;;;4958509;29;20023;-73
2021/01/20 10:05:12;;;;;;;97.10;62.67;;;6.10;89.60;;;;;;4957638;29;20028;-70
2021/01/20 10:07:38;;;;;;;102.07;57.70;;;6.20;90.30;;;;;;4956845;29;20032;-72
2021/01/20 10:10:06;;;;;;;79.78;52.10;;;6.30;88.80;;;;;;4956427;29;20114;-70
2021/01/20 10:12:32;;;;;;;79.35;49.97;;;6.40;90.20;;;;;;4957645;29;20027;-71
2021/01/20 10:14:58;;;;;;;62.53;40.38;;;6.60;89.10;;;;;;4957987;29;20033;-70
2021/01/20 10:17:23;;;;;;;69.07;43.15;;;6.80;88.00;;;;;;4957635;29;20031;-73
2021/01/20 10:19:49;;;;;;;132.90;89.07;;;6.90;86.90;;;;;;4956573;29;20131;-70
2021/01/20 10:22:15;;;;;;;75.20;48.83;;;7.00;85.40;;;;;;4957446;28;20094;-72
2021/01/20 10:24:41;;;;;;;87.53;55.83;;;7.10;86.90;;;;;;4956196;29;20024;-72
2021/01/20 10:27:06;;;;;;;56.00;36.78;;;7.20;85.10;;;;;;4957776;29;20070;-72
2021/01/20 10:29:32;;;;;;;72.22;45.38;;;7.30;85.80;;;;;;4956369;29;20490;-72
2021/01/20 10:31:59;;;;;;;55.90;34.78;;;7.40;86.30;;;;;;4956120;29;20034;-73
2021/01/20 10:34:25;;;;;;;70.43;42.85;;;7.40;84.50;;;;;;4953353;29;20036;-72
2021/01/20 10:36:52;;;;;;;50.88;32.63;;;7.40;86.20;;;;;;4954492;29;20382;-71
2021/01/20 10:39:18;;;;;;;40.92;27.77;;;7.50;86.00;;;;;;4956015;29;20122;-71
2021/01/20 10:41:43;;;;;;;43.22;29.45;;;7.60;85.80;;;;;;4957820;29;20055;-71
2021/01/20 10:44:09;;;;;;;44.92;29.65;;;7.80;83.40;;;;;;4957389;29;20475;-70
2021/01/20 10:46:35;;;;;;;40.80;25.27;;;7.90;83.00;;;;;;4955956;29;20027;-69
2021/01/20 10:49:02;;;;;;;43.03;28.10;;;8.00;83.10;;;;;;4955851;28;20039;-72
2021/01/20 10:51:31;;;;;;;56.72;33.10;;;8.10;83.40;;;;;;4957207;29;20045;-73
2021/01/20 10:53:57;;;;;;;63.58;36.90;;;8.10;82.30;;;;;;4956912;29;20030;-71
2021/01/20 10:56:23;;;;;;;69.20;40.22;;;8.10;82.60;;;;;;4956047;29;20543;-71
2021/01/20 10:58:48;;;;;;;82.00;48.30;;;8.20;81.10;;;;;;4956641;29;20226;-74
2021/01/20 11:01:14;;;;;;;81.30;48.72;;;8.30;81.80;;;;;;4957418;29;20107;-71
2021/01/20 11:03:40;;;;;;;77.28;48.35;;;8.40;80.80;;;;;;4956928;29;20031;-72
2021/01/20 11:06:09;;;;;;;92.97;55.58;;;8.50;80.20;;;;;;4956748;29;20051;-72
2021/01/20 11:08:35;;;;;;;94.15;56.17;;;8.60;79.60;;;;;;4955969;29;20049;-73
2021/01/20 11:11:01;;;;;;;88.18;54.58;;;8.80;79.00;;;;;;4956077;29;20049;-73
2021/01/20 11:13:27;;;;;;;67.65;39.75;;;8.80;76.40;;;;;;4954998;29;20353;-73
2021/01/20 11:15:52;;;;;;;52.47;32.45;;;8.90;77.00;;;;;;4955891;29;20038;-71
2021/01/20 11:18:19;;;;;;;57.40;34.47;;;9.10;74.70;;;;;;4955346;29;20475;-71
2021/01/20 11:20:46;;;;;;;77.40;43.95;;;9.20;74.70;;;;;;4954857;29;20459;-72
2021/01/20 11:23:12;;;;;;;75.50;45.42;;;9.30;74.50;;;;;;4956363;29;20379;-72
2021/01/20 11:25:44;;;;;;;47.67;28.90;;;9.50;74.70;;;;;;4957088;29;20023;-72
2021/01/20 11:28:10;;;;;;;64.57;38.15;;;9.40;71.40;;;;;;4955047;29;20031;-71
2021/01/20 11:30:36;;;;;;;78.13;44.65;;;9.50;74.10;;;;;;4955560;29;20031;-71
2021/01/20 11:33:02;;;;;;;176.43;85.00;;;9.60;76.50;;;;;;4954747;29;20379;-72
2021/01/20 11:35:27;;;;;;;170.50;93.75;;;9.60;73.10;;;;;;4955026;29;20031;-74
2021/01/20 11:37:56;;;;;;;85.03;49.78;;;9.80;75.70;;;;;;4956872;29;20041;-74
2021/01/20 11:40:23;;;;;;;68.47;38.33;;;9.90;74.10;;;;;;4954890;29;20050;-71
2021/01/20 11:42:49;;;;;;;66.22;39.17;;;9.90;74.70;;;;;;4953943;29;20445;-72
2021/01/20 11:45:15;;;;;;;76.30;44.03;;;10.00;76.40;;;;;;4955138;29;20062;-70
2021/01/20 11:47:40;;;;;;;53.65;34.17;;;10.20;76.40;;;;;;4955175;29;20046;-73
2021/01/20 11:50:06;;;;;;;193.82;98.00;;;10.40;72.60;;;;;;4955673;29;20035;-74
2021/01/20 11:52:32;;;;;;;114.25;76.20;;;10.60;77.20;;;;;;4954988;29;20031;-72
2021/01/20 11:54:58;;;;;;;123.25;53.90;;;11.00;73.00;;;;;;4955685;29;20107;-72
2021/01/20 11:57:24;;;;;;;68.50;32.95;;;11.60;74.70;;;;;;4955916;29;20061;-73
2021/01/20 11:59:49;;;;;;;72.68;37.65;;;12.10;67.90;;;;;;4955186;29;20122;-71
2021/01/20 12:02:15;;;;;;;70.60;37.30;;;12.70;69.80;;;;;;4953918;28;20379;-73
2021/01/20 12:04:42;;;;;;;62.70;38.33;;;13.80;66.30;;;;;;4954374;29;20039;-72
2021/01/20 12:07:08;;;;;;;75.97;41.60;;;13.60;59.40;;;;;;4954754;29;20028;-72
2021/01/20 12:09:33;;;;;;;49.72;29.55;;;13.90;58.30;;;;;;4955604;29;20038;-73
2021/01/20 12:11:59;;;;;;;51.80;31.90;;;13.60;59.00;;;;;;4954781;29;20039;-73
2021/01/20 12:14:25;;;;;;;45.67;30.77;;;13.80;58.40;;;;;;4954704;29;20391;-73
2021/01/20 12:16:50;;;;;;;85.40;58.20;;;13.30;57.60;;;;;;4953233;29;20023;-72
2021/01/20 12:19:16;;;;;;;63.70;43.05;;;13.20;60.20;;;;;;4955419;29;20106;-73
2021/01/20 12:21:42;;;;;;;45.85;28.38;;;13.00;58.90;;;;;;4944588;29;20130;-71
2021/01/20 12:24:08;;;;;;;64.43;51.47;;;13.20;59.40;;;;;;4940743;29;20023;-73
2021/01/20 12:26:34;;;;;;;39.85;30.60;;;12.90;58.20;;;;;;4936603;29;20103;-73
2021/01/20 12:28:59;;;;;;;36.20;23.90;;;13.00;59.80;;;;;;4920149;29;20126;-73
2021/01/20 12:31:25;;;;;;;31.60;24.23;;;13.00;59.90;;;;;;4919264;29;20035;-73
2021/01/20 12:33:51;;;;;;;14.23;9.45;;;13.20;59.20;;;;;;4936465;29;20028;-73
2021/01/20 12:36:17;;;;;;;15.77;12.15;;;12.80;58.30;;;;;;4919386;29;20086;-75
2021/01/20 12:38:43;;;;;;;10.82;7.97;;;12.60;59.30;;;;;;4936496;29;20032;-73
2021/01/20 12:41:09;;;;;;;19.00;12.45;;;12.30;60.00;;;;;;4936627;29;20035;-72